CheckWX is a tool to help pilots better visualize weather data.  It is not intended as a substitute for an official pre-flight weather briefing.

10:07:35 UTC

CYZH TAF
Slave Lake Airport
Slave Lake, Canada
TAF CYZH 260638Z 2607/2619 26005KT P6SM SCT050 BKN100 BKN240 TEMPO 2607/2612 P6SM -SHRA BKN030 OVC080 FM261200 28005KT P6SM SCT012 OVC030 TEMPO 2612/2619 4SM -SHRA BR BKN012 OVC020 PROB30 2617/2619 4SM TSRA BKN012 OVC020CB RMK FCST BASED ON AUTO OBS. NXT FCST BY 261300Z

Jun-26@
07:00 UTC

Jun-26 @ 07:00 UTC

Jun-26@
12:00 UTC

Jun-26 @ 12:00 UTC

TAF CYZH 260638Z 2607/2619 26005KT P6SM SCT050 BKN100 BKN240
Wind
  • 260° at 5 KTS
Cloud Levels
  • Scattered at 5,000' AGL
  • Broken at 10,000' AGL
  • Broken at 24,000' AGL

Jun-26@
07:00 UTC

Jun-26 @ 07:00 UTC

Jun-26@
12:00 UTC

Jun-26 @ 12:00 UTC

TEMPO 2607/2612 P6SM -SHRA BKN030 OVC080

Temporary

Temporary Changes expected for less than half the time period

Conditions
Light Rain
Cloud Levels
  • Broken at 3,000' AGL
  • Overcast at 8,000' AGL

Jun-26@
12:00 UTC

Jun-26 @ 12:00 UTC

Jun-26@
19:00 UTC

Jun-26 @ 19:00 UTC

FM261200 28005KT P6SM SCT012 OVC030

From

From Standard forecast or significant change

Wind
  • 280° at 5 KTS
Cloud Levels
  • Scattered at 1,200' AGL
  • Overcast at 3,000' AGL

Jun-26@
12:00 UTC

Jun-26 @ 12:00 UTC

Jun-26@
19:00 UTC

Jun-26 @ 19:00 UTC

TEMPO 2612/2619 4SM -SHRA BR BKN012 OVC020

Temporary

Temporary Changes expected for less than half the time period

Conditions
Light Rain, Mist
Cloud Levels
  • Broken at 1,200' AGL
  • Overcast at 2,000' AGL

Jun-26@
17:00 UTC

Jun-26 @ 17:00 UTC

Jun-26@
19:00 UTC

Jun-26 @ 19:00 UTC

PROB30 2617/2619 4SM TSRA BKN012 OVC020CB RMK FCST BASED ON AUTO OBS. NXT FCST BY 261300Z

Probable - 30% Likelihood

Probable - 30% Likelihood during this time.

Conditions
Thunderstorm, Rain
Cloud Levels
  • Broken at 1,200' AGL
  • Overcast at 2,000' AGL